Time;durP1;ratioP1;P1;durP2;ratioP2;P2;SDS_P1;SDS_P2;PMS_P1;PMS_P2;Temp;Humidity;BMP_temperature;BMP_pressure;BME280_temperature;BME280_humidity;BME280_pressure;Samples;Min_cycle;Max_cycle;Signal;HPM_P1;HPM_P2
2023/10/26 00:00:32;;;;;;;11.55;9.48;;;11.90;99.90;;;;;;2055198;28;20042;-67
2023/10/26 00:01:33;;;;;;;10.82;9.00;;;11.90;99.90;;;;;;2060430;28;20045;-66
2023/10/26 00:02:34;;;;;;;10.52;9.13;;;11.90;99.90;;;;;;2054451;28;20026;-67
2023/10/26 00:03:34;;;;;;;9.80;8.68;;;11.90;99.90;;;;;;2059841;28;20034;-67
2023/10/26 00:04:36;;;;;;;12.15;9.60;;;12.00;99.90;;;;;;2063214;28;20567;-67
2023/10/26 00:05:36;;;;;;;12.57;9.70;;;12.00;99.90;;;;;;2062044;28;20469;-67
2023/10/26 00:06:37;;;;;;;18.08;10.88;;;12.00;99.90;;;;;;2062339;28;20030;-67
2023/10/26 00:07:37;;;;;;;13.50;10.13;;;12.00;99.90;;;;;;2058440;28;20496;-66
2023/10/26 00:08:38;;;;;;;12.88;10.00;;;12.00;99.90;;;;;;2057391;28;20517;-66
2023/10/26 00:09:38;;;;;;;14.27;10.00;;;12.00;99.90;;;;;;2062641;28;20022;-67
2023/10/26 00:10:39;;;;;;;13.50;10.63;;;12.00;99.90;;;;;;2062093;28;20067;-66
2023/10/26 00:11:40;;;;;;;12.98;9.82;;;12.00;99.90;;;;;;2052654;28;20057;-66
2023/10/26 00:12:41;;;;;;;13.05;8.70;;;12.10;99.90;;;;;;2059164;28;20027;-66
2023/10/26 00:13:41;;;;;;;13.93;10.20;;;12.10;99.90;;;;;;2050784;28;20026;-66
2023/10/26 00:14:42;;;;;;;16.10;10.70;;;12.10;99.90;;;;;;2051104;28;20102;-66
2023/10/26 00:15:42;;;;;;;15.48;11.65;;;12.10;99.90;;;;;;2056525;28;20030;-67
2023/10/26 00:16:43;;;;;;;14.65;10.90;;;12.10;99.90;;;;;;2052486;28;20744;-67
2023/10/26 00:17:43;;;;;;;14.93;10.82;;;12.10;99.90;;;;;;2055861;28;20031;-67
2023/10/26 00:18:44;;;;;;;14.88;10.68;;;12.10;99.90;;;;;;2058689;28;20050;-67
2023/10/26 00:19:45;;;;;;;15.82;12.07;;;12.10;99.90;;;;;;2063490;28;20117;-67
2023/10/26 00:20:45;;;;;;;15.02;10.98;;;12.10;99.90;;;;;;2055399;28;20037;-68
2023/10/26 00:21:46;;;;;;;12.52;9.70;;;12.20;99.90;;;;;;2052466;28;20053;-67
2023/10/26 00:22:47;;;;;;;10.30;9.00;;;12.20;99.90;;;;;;2054611;28;20077;-67
2023/10/26 00:23:47;;;;;;;10.20;8.88;;;12.20;99.90;;;;;;2055814;28;20042;-67
2023/10/26 00:24:49;;;;;;;11.35;9.45;;;12.20;99.90;;;;;;2062814;28;20138;-67
2023/10/26 00:25:50;;;;;;;10.00;8.27;;;12.20;99.90;;;;;;2062726;28;20021;-66
2023/10/26 00:26:50;;;;;;;11.93;9.40;;;12.20;99.90;;;;;;2057728;28;20038;-67
2023/10/26 00:27:51;;;;;;;16.27;10.30;;;12.20;99.90;;;;;;2058362;28;20064;-67
2023/10/26 00:28:52;;;;;;;11.20;9.18;;;12.20;99.90;;;;;;2053221;28;20136;-66
2023/10/26 00:29:53;;;;;;;12.05;9.10;;;12.20;99.90;;;;;;2054750;28;20114;-66
2023/10/26 00:30:53;;;;;;;11.43;8.43;;;12.20;99.90;;;;;;2058202;28;20044;-67
2023/10/26 00:31:54;;;;;;;9.85;8.15;;;12.30;99.90;;;;;;2054790;28;20042;-67
2023/10/26 00:32:54;;;;;;;9.13;8.10;;;12.30;99.90;;;;;;2052779;28;20034;-67
2023/10/26 00:33:55;;;;;;;8.70;7.80;;;12.20;99.90;;;;;;2052903;28;20023;-66
2023/10/26 00:34:56;;;;;;;9.48;8.05;;;12.20;99.90;;;;;;2058161;28;20038;-67
2023/10/26 00:35:57;;;;;;;11.55;8.07;;;12.30;99.90;;;;;;2055521;28;20038;-67
2023/10/26 00:36:57;;;;;;;9.45;7.50;;;12.30;99.90;;;;;;2055755;28;20513;-68
2023/10/26 00:37:58;;;;;;;8.15;7.35;;;12.20;99.90;;;;;;2059244;28;20128;-68
2023/10/26 00:38:59;;;;;;;8.80;7.90;;;12.20;99.90;;;;;;2060059;28;20045;-68
2023/10/26 00:39:59;;;;;;;8.57;7.68;;;12.20;99.90;;;;;;2059326;28;20018;-67
2023/10/26 00:41:00;;;;;;;8.75;7.93;;;12.30;99.90;;;;;;2048726;28;20035;-68
2023/10/26 00:42:01;;;;;;;8.65;7.75;;;12.30;99.90;;;;;;2051327;28;20426;-71
2023/10/26 00:43:03;;;;;;;9.00;7.97;;;12.30;99.90;;;;;;2058008;28;20097;-75
2023/10/26 00:44:04;;;;;;;10.05;8.43;;;12.20;99.90;;;;;;2060670;28;20018;-82
2023/10/26 00:45:05;;;;;;;9.73;8.73;;;12.20;99.90;;;;;;2058472;28;20021;-75
2023/10/26 00:46:10;;;;;;;11.68;8.50;;;12.20;99.90;;;;;;2058807;28;20025;-76
2023/10/26 00:47:11;;;;;;;9.30;8.30;;;12.30;99.90;;;;;;2056257;28;20031;-76
2023/10/26 00:48:11;;;;;;;9.57;8.43;;;12.30;99.90;;;;;;2050475;28;20506;-76
2023/10/26 00:49:15;;;;;;;8.80;7.95;;;12.30;99.90;;;;;;2050581;28;20049;-76
2023/10/26 00:50:16;;;;;;;10.50;8.85;;;12.30;99.90;;;;;;2054260;28;20405;-76
2023/10/26 00:51:17;;;;;;;9.05;8.15;;;12.30;99.90;;;;;;2048901;28;20057;-76
2023/10/26 00:52:19;;;;;;;9.15;8.25;;;12.30;99.90;;;;;;2062192;28;20042;-76
2023/10/26 00:53:20;;;;;;;9.60;8.60;;;12.40;99.90;;;;;;2059229;28;20073;-76
2023/10/26 00:54:23;;;;;;;8.73;7.90;;;12.30;99.90;;;;;;2046368;28;20532;-76
2023/10/26 00:55:24;;;;;;;8.85;8.00;;;12.30;99.90;;;;;;2050978;28;20402;-76
2023/10/26 00:56:26;;;;;;;10.68;8.80;;;12.30;99.90;;;;;;2048894;28;20031;-77
2023/10/26 00:57:27;;;;;;;9.52;8.63;;;12.30;99.90;;;;;;2051787;28;20781;-76
2023/10/26 00:58:29;;;;;;;10.85;8.63;;;12.30;99.90;;;;;;2060996;28;20041;-76
2023/10/26 00:59:30;;;;;;;10.07;9.00;;;12.30;99.90;;;;;;2058390;28;20113;-76
2023/10/26 01:00:31;;;;;;;11.23;9.35;;;12.30;99.90;;;;;;2052453;28;20014;-75
2023/10/26 01:01:34;;;;;;;10.90;9.18;;;12.30;99.90;;;;;;2051660;28;20030;-76
2023/10/26 01:02:36;;;;;;;9.98;8.98;;;12.30;99.90;;;;;;2053011;28;20076;-77
2023/10/26 01:03:38;;;;;;;11.00;9.90;;;12.30;99.90;;;;;;2052635;28;20059;-76
2023/10/26 01:04:41;;;;;;;10.95;9.48;;;12.30;99.90;;;;;;2059305;28;20030;-75
2023/10/26 01:05:41;;;;;;;10.63;9.60;;;12.30;99.90;;;;;;2063218;28;20058;-75
2023/10/26 01:06:43;;;;;;;11.30;10.18;;;12.30;99.90;;;;;;2063235;28;20028;-76
2023/10/26 01:07:44;;;;;;;12.20;9.90;;;12.30;99.90;;;;;;2050323;28;20398;-76
2023/10/26 01:08:45;;;;;;;11.52;10.38;;;12.30;99.90;;;;;;2054303;28;20121;-75
2023/10/26 01:09:47;;;;;;;11.60;10.48;;;12.30;99.90;;;;;;2058411;28;20508;-76
2023/10/26 01:10:48;;;;;;;11.85;10.60;;;12.20;99.90;;;;;;2050932;28;20069;-75
2023/10/26 01:11:48;;;;;;;11.48;10.27;;;12.20;99.90;;;;;;2055096;28;20034;-75
2023/10/26 01:12:49;;;;;;;11.07;9.98;;;12.20;99.90;;;;;;2058099;28;20702;-76
2023/10/26 01:13:50;;;;;;;12.38;9.98;;;12.20;99.90;;;;;;2056922;28;20477;-75
2023/10/26 01:14:51;;;;;;;12.02;10.82;;;12.20;99.90;;;;;;2058015;28;20052;-76
2023/10/26 01:15:52;;;;;;;12.23;10.68;;;12.20;99.90;;;;;;2052844;28;20046;-74
2023/10/26 01:16:54;;;;;;;12.18;10.98;;;12.20;99.90;;;;;;2048489;28;20465;-73
2023/10/26 01:17:55;;;;;;;12.52;11.23;;;12.20;99.90;;;;;;2059147;28;20029;-75
2023/10/26 01:18:59;;;;;;;12.38;11.07;;;12.20;99.90;;;;;;2058979;28;20564;-75
2023/10/26 01:19:59;;;;;;;14.23;11.70;;;12.20;99.90;;;;;;2059039;28;20018;-75
2023/10/26 01:21:00;;;;;;;13.95;12.02;;;12.20;99.90;;;;;;2059561;28;20112;-75
2023/10/26 01:22:01;;;;;;;13.30;11.90;;;12.20;99.90;;;;;;2050214;28;20071;-75
2023/10/26 01:23:02;;;;;;;14.20;12.65;;;12.20;99.90;;;;;;2053928;28;20034;-75
2023/10/26 01:24:03;;;;;;;17.58;13.57;;;12.10;99.90;;;;;;2059096;28;20497;-74
2023/10/26 01:25:04;;;;;;;15.38;13.35;;;12.10;99.90;;;;;;2060318;28;20037;-75
2023/10/26 01:26:05;;;;;;;20.50;15.48;;;12.10;99.90;;;;;;2056976;28;20041;-75
2023/10/26 01:27:06;;;;;;;19.23;13.80;;;12.10;99.90;;;;;;2060342;28;20037;-75
2023/10/26 01:28:10;;;;;;;15.80;14.07;;;12.10;99.90;;;;;;2061157;28;20409;-75
2023/10/26 01:29:11;;;;;;;18.65;14.90;;;12.10;99.90;;;;;;2060051;28;20037;-75
2023/10/26 01:30:12;;;;;;;16.95;14.57;;;12.10;99.90;;;;;;2060516;28;20117;-74
2023/10/26 01:31:17;;;;;;;16.17;14.48;;;12.10;99.90;;;;;;2062106;28;20049;-77
2023/10/26 01:32:17;;;;;;;15.77;14.07;;;12.10;99.90;;;;;;2058121;28;20050;-75
2023/10/26 01:33:19;;;;;;;14.80;13.25;;;12.10;99.90;;;;;;2061977;28;20026;-75
2023/10/26 01:34:20;;;;;;;15.15;13.38;;;12.10;99.90;;;;;;2057707;28;20050;-74
2023/10/26 01:35:20;;;;;;;14.60;13.07;;;12.20;99.90;;;;;;2056027;28;20038;-74
2023/10/26 01:36:21;;;;;;;16.52;13.57;;;12.20;99.90;;;;;;2058001;28;20583;-74
2023/10/26 01:37:22;;;;;;;16.63;13.85;;;12.10;99.90;;;;;;2061399;28;20498;-74
2023/10/26 01:38:22;;;;;;;16.98;13.70;;;12.10;99.90;;;;;;2060453;28;20041;-77
2023/10/26 01:39:24;;;;;;;15.55;13.95;;;12.10;99.90;;;;;;2055702;28;20037;-74
2023/10/26 01:40:24;;;;;;;17.83;14.63;;;12.10;99.90;;;;;;2056070;28;20623;-74
2023/10/26 01:41:25;;;;;;;20.20;16.83;;;12.10;99.90;;;;;;2062416;28;20051;-74
2023/10/26 01:42:26;;;;;;;26.13;19.40;;;12.10;99.90;;;;;;2058679;28;20034;-74
2023/10/26 01:43:26;;;;;;;24.73;19.38;;;12.10;99.90;;;;;;2049506;28;20027;-75
2023/10/26 01:44:27;;;;;;;21.15;17.50;;;12.00;99.90;;;;;;2050814;28;20326;-75
2023/10/26 01:45:27;;;;;;;19.92;16.30;;;12.00;99.90;;;;;;2058614;28;20404;-75
2023/10/26 01:46:28;;;;;;;16.92;14.98;;;12.00;99.90;;;;;;2060307;28;20044;-75
2023/10/26 01:47:29;;;;;;;16.20;13.75;;;12.00;99.90;;;;;;2060999;28;20417;-75
2023/10/26 01:48:30;;;;;;;17.50;13.38;;;12.00;99.90;;;;;;2051236;28;20445;-74
2023/10/26 01:49:31;;;;;;;15.82;14.23;;;12.00;99.90;;;;;;2058884;28;20580;-74
2023/10/26 01:50:32;;;;;;;15.45;13.95;;;12.00;99.90;;;;;;2062584;28;20025;-75
2023/10/26 01:51:32;;;;;;;15.88;14.30;;;12.00;99.90;;;;;;2059821;28;20109;-75
2023/10/26 01:52:34;;;;;;;18.63;15.38;;;12.00;99.90;;;;;;2059267;28;20052;-75
2023/10/26 01:53:35;;;;;;;15.68;13.98;;;12.00;99.90;;;;;;2054067;28;20069;-75
2023/10/26 01:54:35;;;;;;;16.00;14.40;;;12.00;99.90;;;;;;2051064;28;20042;-75
2023/10/26 01:55:36;;;;;;;15.00;13.45;;;12.10;99.90;;;;;;2056762;28;20022;-76
2023/10/26 01:56:37;;;;;;;15.43;13.90;;;12.10;99.90;;;;;;2058247;28;20862;-75
2023/10/26 01:57:37;;;;;;;15.55;14.00;;;12.10;99.90;;;;;;2057341;28;20026;-75
2023/10/26 01:58:39;;;;;;;15.48;13.98;;;12.10;99.90;;;;;;2056259;28;20030;-75
2023/10/26 01:59:40;;;;;;;15.63;14.00;;;12.10;99.90;;;;;;2057629;28;20626;-75
2023/10/26 02:00:40;;;;;;;17.23;14.43;;;12.10;99.90;;;;;;2061448;28;20613;-76
2023/10/26 02:01:41;;;;;;;16.33;14.63;;;12.10;99.90;;;;;;2057353;28;20986;-75
2023/10/26 02:02:41;;;;;;;18.10;15.50;;;12.10;99.90;;;;;;2059246;28;20026;-75
2023/10/26 02:03:42;;;;;;;16.73;14.73;;;12.00;99.90;;;;;;2058730;28;20085;-75
2023/10/26 02:04:43;;;;;;;15.35;13.77;;;12.00;99.90;;;;;;2054907;28;20031;-75
2023/10/26 02:05:43;;;;;;;15.75;14.15;;;12.00;99.90;;;;;;2053428;28;20488;-75
2023/10/26 02:06:44;;;;;;;16.75;15.07;;;12.00;99.90;;;;;;2055358;28;20042;-75
2023/10/26 02:07:45;;;;;;;15.40;13.90;;;12.00;99.90;;;;;;2050112;28;20034;-75
2023/10/26 02:08:45;;;;;;;15.38;13.88;;;12.00;99.90;;;;;;2049947;28;20019;-75
2023/10/26 02:09:46;;;;;;;16.00;14.40;;;12.00;99.90;;;;;;2057942;28;20045;-75
2023/10/26 02:10:46;;;;;;;15.75;14.15;;;12.00;99.90;;;;;;2058967;28;20018;-75
2023/10/26 02:11:47;;;;;;;15.75;14.25;;;12.00;99.90;;;;;;2058903;28;20031;-75
2023/10/26 02:12:50;;;;;;;16.58;14.80;;;12.00;99.90;;;;;;2053085;28;20126;-76
2023/10/26 02:13:51;;;;;;;16.88;15.18;;;11.90;99.90;;;;;;2042450;28;20027;-74
2023/10/26 02:14:52;;;;;;;16.23;14.57;;;11.90;99.90;;;;;;2049982;28;20580;-74
2023/10/26 02:15:52;;;;;;;16.73;15.02;;;12.00;99.90;;;;;;2055729;28;20026;-74
2023/10/26 02:16:53;;;;;;;16.77;15.13;;;12.00;99.90;;;;;;2049915;28;20018;-74
2023/10/26 02:17:53;;;;;;;16.83;14.90;;;12.00;99.90;;;;;;2056238;28;20128;-75
2023/10/26 02:18:54;;;;;;;16.42;14.65;;;12.00;99.90;;;;;;2051288;28;20038;-75
2023/10/26 02:19:55;;;;;;;17.00;15.30;;;12.00;99.90;;;;;;2058577;28;20611;-75
2023/10/26 02:20:55;;;;;;;16.67;15.07;;;12.00;99.90;;;;;;2050434;28;20034;-76
2023/10/26 02:21:56;;;;;;;17.70;15.90;;;11.90;99.90;;;;;;2049852;28;20034;-76
2023/10/26 02:22:57;;;;;;;17.48;15.77;;;11.90;99.90;;;;;;2058242;28;20037;-76
2023/10/26 02:23:57;;;;;;;17.30;15.60;;;11.90;99.90;;;;;;2050140;28;20034;-75
2023/10/26 02:24:58;;;;;;;16.75;15.15;;;11.90;99.90;;;;;;2048849;28;20034;-75
2023/10/26 02:26:01;;;;;;;17.05;15.25;;;11.90;99.90;;;;;;2063458;28;20049;-75
2023/10/26 02:27:02;;;;;;;17.65;15.95;;;11.90;99.90;;;;;;2051324;28;20061;-74
2023/10/26 02:28:03;;;;;;;17.40;15.65;;;11.90;99.90;;;;;;2051435;28;20089;-74
2023/10/26 02:29:04;;;;;;;17.38;15.57;;;11.90;99.90;;;;;;2060199;28;20527;-75
2023/10/26 02:30:05;;;;;;;16.92;15.30;;;11.90;99.90;;;;;;2047830;28;20027;-74
2023/10/26 02:31:06;;;;;;;16.05;14.45;;;11.90;99.90;;;;;;2052262;28;20070;-76
2023/10/26 02:32:07;;;;;;;17.73;15.93;;;11.90;99.90;;;;;;2063487;28;20029;-75
2023/10/26 02:33:07;;;;;;;18.67;16.77;;;11.90;99.90;;;;;;2057248;28;20049;-75
2023/10/26 02:34:08;;;;;;;18.65;16.23;;;11.90;99.90;;;;;;2061314;28;20450;-75
2023/10/26 02:35:09;;;;;;;18.17;16.25;;;11.90;99.90;;;;;;2062796;28;20065;-75
2023/10/26 02:36:10;;;;;;;18.65;16.17;;;11.90;99.90;;;;;;2061306;28;20529;-75
2023/10/26 02:37:10;;;;;;;17.70;15.90;;;11.90;99.90;;;;;;2063499;28;20540;-75
2023/10/26 02:38:11;;;;;;;17.65;15.82;;;11.90;99.90;;;;;;2060503;28;20034;-75
2023/10/26 02:39:12;;;;;;;18.02;16.13;;;11.90;99.90;;;;;;2061396;28;20026;-75
2023/10/26 02:40:13;;;;;;;17.60;15.90;;;11.90;99.90;;;;;;2054510;28;20066;-75
2023/10/26 02:41:14;;;;;;;18.05;16.17;;;11.80;99.90;;;;;;2053091;28;20026;-74
2023/10/26 02:42:17;;;;;;;17.67;15.88;;;11.80;99.90;;;;;;2055773;28;20037;-75
2023/10/26 02:43:19;;;;;;;19.38;17.08;;;11.80;99.90;;;;;;2052146;28;20076;-75
2023/10/26 02:44:19;;;;;;;19.23;17.23;;;11.80;99.90;;;;;;2062728;28;20038;-74
2023/10/26 02:45:20;;;;;;;18.73;16.73;;;11.80;99.90;;;;;;2062473;28;20034;-75
2023/10/26 02:46:23;;;;;;;17.58;15.88;;;11.80;99.90;;;;;;2059817;28;20035;-75
2023/10/26 02:47:24;;;;;;;18.23;16.42;;;11.80;99.90;;;;;;2054532;28;20069;-75
2023/10/26 02:48:24;;;;;;;18.50;16.52;;;11.80;99.90;;;;;;2057059;28;20026;-75
2023/10/26 02:49:25;;;;;;;18.27;16.38;;;11.80;99.90;;;;;;2059314;28;20048;-75
2023/10/26 02:50:27;;;;;;;18.02;16.13;;;11.80;99.90;;;;;;2055069;28;20026;-75
2023/10/26 02:51:27;;;;;;;16.98;15.27;;;11.80;99.90;;;;;;2054570;28;20095;-75
2023/10/26 02:52:28;;;;;;;17.92;15.82;;;11.80;99.90;;;;;;2051832;28;20158;-75
2023/10/26 02:53:29;;;;;;;17.58;15.68;;;11.80;99.90;;;;;;2053524;28;20078;-75
2023/10/26 02:54:30;;;;;;;17.40;15.60;;;11.80;99.90;;;;;;2052006;28;20026;-76
2023/10/26 02:55:30;;;;;;;17.02;15.32;;;11.80;99.90;;;;;;2061736;28;20096;-75
2023/10/26 02:56:31;;;;;;;15.40;13.80;;;11.80;99.90;;;;;;2063015;28;20259;-77
2023/10/26 02:57:31;;;;;;;17.13;15.40;;;11.80;99.90;;;;;;2058314;28;20580;-75
2023/10/26 02:58:32;;;;;;;17.13;15.32;;;11.80;99.90;;;;;;2056086;28;20034;-77
2023/10/26 02:59:32;;;;;;;17.00;15.30;;;11.80;99.90;;;;;;2061347;28;20117;-75
2023/10/26 03:00:33;;;;;;;16.88;15.18;;;11.80;99.90;;;;;;2057374;28;20708;-74
2023/10/26 03:01:34;;;;;;;15.25;13.73;;;11.80;99.90;;;;;;2058872;28;20118;-74
2023/10/26 03:02:35;;;;;;;13.50;12.20;;;11.80;99.90;;;;;;2061952;28;20036;-75
2023/10/26 03:03:35;;;;;;;13.95;12.13;;;11.80;99.90;;;;;;2059244;28;20628;-74
2023/10/26 03:04:37;;;;;;;13.13;11.82;;;11.80;99.90;;;;;;2060556;28;20030;-74
2023/10/26 03:05:38;;;;;;;12.60;11.38;;;11.80;99.90;;;;;;2056566;28;20089;-75
2023/10/26 03:06:39;;;;;;;13.25;11.85;;;11.80;99.90;;;;;;2053044;28;20081;-75
2023/10/26 03:07:40;;;;;;;12.90;11.52;;;11.80;99.90;;;;;;2051511;28;20146;-75
2023/10/26 03:08:40;;;;;;;11.60;10.50;;;11.80;99.90;;;;;;2060989;28;20642;-75
2023/10/26 03:09:41;;;;;;;10.80;9.70;;;11.80;99.90;;;;;;2060348;28;20590;-75
2023/10/26 03:10:41;;;;;;;10.82;9.73;;;11.80;99.90;;;;;;2060452;28;20571;-75
2023/10/26 03:11:42;;;;;;;10.30;9.23;;;11.80;99.90;;;;;;2056465;28;20169;-75
2023/10/26 03:12:45;;;;;;;10.63;9.63;;;11.80;99.90;;;;;;2061358;28;20496;-75
2023/10/26 03:13:46;;;;;;;10.18;9.18;;;11.90;99.90;;;;;;2060449;28;20026;-75
2023/10/26 03:14:46;;;;;;;10.35;9.25;;;11.80;99.90;;;;;;2056740;28;20101;-75
2023/10/26 03:15:48;;;;;;;11.20;9.43;;;11.80;99.90;;;;;;2055833;28;20034;-75
2023/10/26 03:16:48;;;;;;;10.60;9.52;;;11.90;99.90;;;;;;2062804;28;20113;-75
2023/10/26 03:17:49;;;;;;;10.80;9.75;;;11.90;99.90;;;;;;2044351;28;20035;-75
2023/10/26 03:18:50;;;;;;;10.50;9.50;;;11.90;99.90;;;;;;2051086;28;20031;-74
2023/10/26 03:19:51;;;;;;;10.40;9.40;;;11.90;99.90;;;;;;2062704;28;20041;-74
2023/10/26 03:20:52;;;;;;;8.55;7.65;;;11.90;99.90;;;;;;2059687;28;20045;-75
2023/10/26 03:21:52;;;;;;;8.50;7.60;;;11.90;99.90;;;;;;2056304;28;20146;-76
2023/10/26 03:22:53;;;;;;;10.63;8.75;;;11.90;99.90;;;;;;2055834;28;20093;-75
2023/10/26 03:23:55;;;;;;;8.38;7.15;;;12.00;99.90;;;;;;2056015;28;20505;-76
2023/10/26 03:24:56;;;;;;;6.65;5.95;;;11.90;99.90;;;;;;2055864;28;20030;-75
2023/10/26 03:25:56;;;;;;;6.88;6.20;;;11.90;99.90;;;;;;2051471;28;20033;-75
2023/10/26 03:26:58;;;;;;;6.97;6.32;;;11.90;99.90;;;;;;2051672;28;20054;-75
2023/10/26 03:27:59;;;;;;;6.90;6.22;;;11.90;99.90;;;;;;2058723;28;20030;-76
2023/10/26 03:29:00;;;;;;;6.50;5.90;;;11.90;99.90;;;;;;2059461;28;20029;-75
2023/10/26 03:30:00;;;;;;;7.20;5.63;;;12.00;99.90;;;;;;2055950;28;20015;-75
2023/10/26 03:31:01;;;;;;;5.63;5.13;;;12.00;99.90;;;;;;2059488;28;20497;-76
2023/10/26 03:32:02;;;;;;;4.90;4.47;;;12.00;99.90;;;;;;2051054;28;20374;-76
2023/10/26 03:33:03;;;;;;;5.57;5.00;;;12.00;99.90;;;;;;2051165;28;20526;-75
2023/10/26 03:34:03;;;;;;;5.70;5.00;;;12.00;99.90;;;;;;2059246;28;20025;-75
2023/10/26 03:35:04;;;;;;;5.28;4.60;;;11.90;99.90;;;;;;2058963;28;20121;-75
2023/10/26 03:36:12;;;;;;;6.00;4.55;;;11.90;99.90;;;;;;2063320;28;20548;-76
2023/10/26 03:37:12;;;;;;;4.57;3.15;;;11.90;99.90;;;;;;2057591;28;20043;-76
2023/10/26 03:38:13;;;;;;;4.18;3.28;;;11.90;99.90;;;;;;2055730;28;20405;-76
2023/10/26 03:39:14;;;;;;;5.50;4.15;;;11.90;99.90;;;;;;2047327;28;20612;-76
2023/10/26 03:40:16;;;;;;;5.65;4.70;;;11.90;99.90;;;;;;2047245;28;20027;-76
2023/10/26 03:41:18;;;;;;;5.68;4.13;;;11.90;99.90;;;;;;2055257;28;20513;-76
2023/10/26 03:42:19;;;;;;;4.22;3.40;;;11.90;99.90;;;;;;2059569;28;20041;-76
2023/10/26 03:43:19;;;;;;;3.30;2.88;;;11.90;99.90;;;;;;2062765;28;20695;-76
2023/10/26 03:44:20;;;;;;;4.25;2.88;;;11.90;99.90;;;;;;2059233;28;20400;-76
2023/10/26 03:45:20;;;;;;;4.38;2.60;;;12.00;99.90;;;;;;2056799;28;20120;-76
2023/10/26 03:46:21;;;;;;;3.45;2.50;;;12.00;99.90;;;;;;2054268;28;20023;-76
2023/10/26 03:47:22;;;;;;;11.52;9.98;;;12.00;99.90;;;;;;2050882;28;20037;-76
2023/10/26 03:48:22;;;;;;;7.80;5.85;;;12.00;99.90;;;;;;2055725;28;20026;-76
2023/10/26 03:49:24;;;;;;;3.65;2.30;;;12.00;99.90;;;;;;2055890;28;20113;-75
2023/10/26 03:50:25;;;;;;;2.95;2.08;;;12.00;99.90;;;;;;2046918;28;20031;-76
2023/10/26 03:51:25;;;;;;;2.22;1.77;;;12.00;99.90;;;;;;2050847;28;20130;-75
2023/10/26 03:52:26;;;;;;;2.50;1.67;;;12.00;99.90;;;;;;2059071;28;20034;-76
2023/10/26 03:53:27;;;;;;;3.17;1.75;;;12.00;99.90;;;;;;2050951;28;20027;-76
2023/10/26 03:54:28;;;;;;;1.60;1.50;;;12.00;99.90;;;;;;2055015;28;20596;-76
2023/10/26 03:55:29;;;;;;;2.25;1.20;;;12.00;99.90;;;;;;2047160;28;20086;-76
2023/10/26 03:56:29;;;;;;;1.60;1.10;;;12.00;99.90;;;;;;2054562;28;20019;-76
2023/10/26 03:57:32;;;;;;;3.35;1.20;;;12.00;99.90;;;;;;2062755;28;20118;-76
2023/10/26 03:58:32;;;;;;;2.35;1.13;;;12.00;99.90;;;;;;2058537;28;20026;-75
2023/10/26 03:59:33;;;;;;;1.08;1.05;;;12.00;99.90;;;;;;2058452;28;20049;-76
2023/10/26 04:00:34;;;;;;;2.25;1.20;;;12.00;99.90;;;;;;2046224;28;20643;-75
2023/10/26 04:01:35;;;;;;;1.42;1.15;;;12.00;99.90;;;;;;2050885;28;20132;-76
2023/10/26 04:02:36;;;;;;;1.17;1.08;;;12.00;99.90;;;;;;2057398;28;20077;-76
2023/10/26 04:03:36;;;;;;;2.33;0.90;;;12.00;99.90;;;;;;2053208;28;20031;-76
2023/10/26 04:04:37;;;;;;;1.60;1.05;;;12.10;99.90;;;;;;2048792;28;20307;-74
2023/10/26 04:05:38;;;;;;;2.35;0.98;;;12.00;99.90;;;;;;2044000;28;20122;-74
2023/10/26 04:06:38;;;;;;;1.42;1.20;;;12.00;99.90;;;;;;2059450;28;20033;-75
2023/10/26 04:07:39;;;;;;;1.02;0.90;;;12.00;99.90;;;;;;2055542;28;20082;-75
2023/10/26 04:08:40;;;;;;;2.30;1.30;;;12.00;99.90;;;;;;2056327;28;20039;-74
2023/10/26 04:09:40;;;;;;;3.08;1.00;;;12.00;99.90;;;;;;2048160;28;20018;-74
2023/10/26 04:10:42;;;;;;;1.45;1.00;;;11.90;99.90;;;;;;2049374;28;20537;-74
2023/10/26 04:11:44;;;;;;;3.00;0.90;;;11.90;99.90;;;;;;2058569;28;20061;-75
2023/10/26 04:12:45;;;;;;;2.33;0.98;;;11.90;99.90;;;;;;2057364;28;20038;-75
2023/10/26 04:13:45;;;;;;;2.78;1.00;;;11.90;99.90;;;;;;2056847;28;20704;-75
2023/10/26 04:14:46;;;;;;;1.35;1.00;;;11.90;99.90;;;;;;2057205;28;20073;-74
2023/10/26 04:15:46;;;;;;;1.48;1.30;;;11.90;99.90;;;;;;2057977;28;20033;-78
2023/10/26 04:16:47;;;;;;;2.45;1.10;;;11.90;99.90;;;;;;2055224;28;20564;-77
2023/10/26 04:17:48;;;;;;;2.60;1.00;;;11.90;99.90;;;;;;2060467;28;20037;-78
2023/10/26 04:18:48;;;;;;;3.08;1.00;;;11.90;99.90;;;;;;2052746;28;20604;-78
2023/10/26 04:19:49;;;;;;;1.13;1.05;;;11.90;99.90;;;;;;2040745;28;20639;-77
2023/10/26 04:20:49;;;;;;;1.80;1.00;;;11.90;99.90;;;;;;2047280;28;20031;-77
2023/10/26 04:21:50;;;;;;;1.02;1.02;;;11.90;99.90;;;;;;2051460;28;20035;-77
2023/10/26 04:22:51;;;;;;;1.25;1.10;;;11.80;99.90;;;;;;2062706;28;20033;-78
2023/10/26 04:23:51;;;;;;;1.85;1.00;;;11.80;99.90;;;;;;2057547;28;20118;-77
2023/10/26 04:24:52;;;;;;;1.77;1.10;;;11.90;99.90;;;;;;2059164;28;20072;-77
2023/10/26 04:25:53;;;;;;;1.88;1.00;;;11.90;99.90;;;;;;2053465;28;20031;-76
2023/10/26 04:26:54;;;;;;;1.52;1.08;;;11.80;99.90;;;;;;2050653;28;20039;-77
2023/10/26 04:27:57;;;;;;;2.08;1.00;;;11.90;99.90;;;;;;2059652;28;20022;-78
2023/10/26 04:28:58;;;;;;;1.13;1.00;;;11.90;99.90;;;;;;2053920;28;20043;-77
2023/10/26 04:29:59;;;;;;;2.78;2.58;;;11.90;99.90;;;;;;2054688;28;20030;-77
2023/10/26 04:30:59;;;;;;;3.20;1.10;;;11.90;99.90;;;;;;2053762;28;20089;-77
2023/10/26 04:32:00;;;;;;;0.90;0.90;;;11.90;99.90;;;;;;2046916;28;20019;-76
2023/10/26 04:33:01;;;;;;;2.42;1.05;;;11.90;99.90;;;;;;2050923;28;20031;-77
2023/10/26 04:34:01;;;;;;;1.50;1.00;;;11.90;99.90;;;;;;2055285;28;20106;-77
2023/10/26 04:35:02;;;;;;;0.95;0.90;;;11.90;99.90;;;;;;2059585;28;20033;-77
2023/10/26 04:36:04;;;;;;;3.28;1.10;;;11.90;99.90;;;;;;2059362;28;20153;-78
2023/10/26 04:37:05;;;;;;;1.95;1.00;;;11.90;99.90;;;;;;2055235;28;20097;-77
2023/10/26 04:38:05;;;;;;;0.98;0.98;;;11.90;99.90;;;;;;2056228;28;20094;-77
2023/10/26 04:39:09;;;;;;;1.20;1.10;;;11.90;99.90;;;;;;2058375;28;20148;-77
2023/10/26 04:40:10;;;;;;;2.60;1.40;;;11.90;99.90;;;;;;2063344;28;20022;-77
2023/10/26 04:41:11;;;;;;;1.60;0.90;;;11.90;99.90;;;;;;2057729;28;20100;-78
2023/10/26 04:42:12;;;;;;;1.10;1.00;;;11.90;99.90;;;;;;2057341;28;20721;-76
2023/10/26 04:43:13;;;;;;;2.58;1.20;;;11.90;99.90;;;;;;2057287;28;20579;-75
2023/10/26 04:44:14;;;;;;;2.13;1.20;;;11.90;99.90;;;;;;2055715;28;20046;-77
2023/10/26 04:45:15;;;;;;;1.23;1.13;;;11.90;99.90;;;;;;2061168;28;20061;-78
2023/10/26 04:46:16;;;;;;;1.95;1.10;;;11.90;99.90;;;;;;2060857;28;20748;-77
2023/10/26 04:47:16;;;;;;;1.40;1.30;;;11.90;99.90;;;;;;2056261;28;20033;-77
2023/10/26 04:48:17;;;;;;;2.75;1.40;;;11.90;99.90;;;;;;2058243;28;20129;-77
2023/10/26 04:49:17;;;;;;;2.75;1.30;;;11.90;99.90;;;;;;2056597;28;20049;-77
2023/10/26 04:50:18;;;;;;;1.00;0.90;;;11.90;99.90;;;;;;2052751;28;20047;-77
2023/10/26 04:51:18;;;;;;;1.50;1.00;;;11.90;99.90;;;;;;2050170;28;20045;-77
2023/10/26 04:52:20;;;;;;;2.05;1.20;;;11.90;99.90;;;;;;2053743;28;20034;-74
2023/10/26 04:53:21;;;;;;;1.02;0.93;;;11.90;99.90;;;;;;2057148;28;20027;-74
2023/10/26 04:54:21;;;;;;;1.00;0.90;;;11.90;99.90;;;;;;2058708;28;20058;-74
2023/10/26 04:55:22;;;;;;;1.08;1.08;;;11.90;99.90;;;;;;2056084;28;20062;-74
2023/10/26 04:56:23;;;;;;;1.17;1.00;;;11.90;99.90;;;;;;2050079;28;20054;-75
2023/10/26 04:57:23;;;;;;;0.93;0.90;;;11.90;99.90;;;;;;2050608;28;20093;-74
2023/10/26 04:58:24;;;;;;;1.63;1.10;;;11.90;99.90;;;;;;2050398;28;20106;-75
2023/10/26 04:59:24;;;;;;;1.15;1.05;;;11.90;99.90;;;;;;2050479;28;20038;-74
2023/10/26 05:00:26;;;;;;;1.20;1.10;;;11.90;99.90;;;;;;2043162;28;20046;-74
2023/10/26 05:01:27;;;;;;;2.25;1.00;;;11.90;99.90;;;;;;2048176;28;20430;-74
2023/10/26 05:02:27;;;;;;;1.15;1.05;;;11.90;99.90;;;;;;2053936;28;20058;-75
2023/10/26 05:03:28;;;;;;;1.20;1.10;;;11.90;99.90;;;;;;2062621;28;20088;-74
2023/10/26 05:04:28;;;;;;;1.15;1.08;;;11.90;99.90;;;;;;2054080;28;20042;-75
2023/10/26 05:05:29;;;;;;;1.92;1.00;;;11.90;99.90;;;;;;2052483;28;20026;-75
2023/10/26 05:06:30;;;;;;;1.80;1.10;;;11.90;99.90;;;;;;2049723;28;20052;-75
2023/10/26 05:07:31;;;;;;;0.90;0.90;;;11.90;99.90;;;;;;2054241;28;20015;-75
2023/10/26 05:08:31;;;;;;;1.00;1.00;;;11.90;99.90;;;;;;2062120;28;20053;-75
2023/10/26 05:09:32;;;;;;;1.15;1.00;;;11.90;99.90;;;;;;2047122;28;20053;-75
2023/10/26 05:10:32;;;;;;;0.88;0.88;;;11.90;99.90;;;;;;2050991;28;20043;-75
2023/10/26 05:11:33;;;;;;;1.45;1.33;;;11.90;99.90;;;;;;2060945;28;20100;-75
2023/10/26 05:12:34;;;;;;;1.15;1.08;;;11.90;99.90;;;;;;2059479;28;20386;-75